sensor_id;sensor_type;location;lat;lon;timestamp;P1;durP1;ratioP1;P2;durP2;ratioP2
21769;SDS011;11046;49.558;8.674;2023-09-19T00:02:52;2.10;;;1.10;;
21769;SDS011;11046;49.558;8.674;2023-09-19T00:05:59;1.10;;;1.00;;
21769;SDS011;11046;49.558;8.674;2023-09-19T00:09:00;2.90;;;1.02;;
21769;SDS011;11046;49.558;8.674;2023-09-19T00:12:00;10.23;;;1.33;;
21769;SDS011;11046;49.558;8.674;2023-09-19T00:15:01;1.98;;;1.00;;
21769;SDS011;11046;49.558;8.674;2023-09-19T00:18:05;2.75;;;1.20;;
21769;SDS011;11046;49.558;8.674;2023-09-19T00:21:07;3.17;;;1.48;;
21769;SDS011;11046;49.558;8.674;2023-09-19T00:24:08;2.70;;;1.10;;
21769;SDS011;11046;49.558;8.674;2023-09-19T00:27:09;3.00;;;1.17;;
21769;SDS011;11046;49.558;8.674;2023-09-19T00:30:10;3.05;;;1.40;;
21769;SDS011;11046;49.558;8.674;2023-09-19T00:33:16;8.18;;;1.55;;
21769;SDS011;11046;49.558;8.674;2023-09-19T00:36:16;2.00;;;1.30;;
21769;SDS011;11046;49.558;8.674;2023-09-19T00:39:18;2.08;;;1.00;;
21769;SDS011;11046;49.558;8.674;2023-09-19T00:42:20;4.30;;;1.20;;
21769;SDS011;11046;49.558;8.674;2023-09-19T00:45:21;3.03;;;1.23;;
21769;SDS011;11046;49.558;8.674;2023-09-19T00:48:22;2.70;;;1.60;;
21769;SDS011;11046;49.558;8.674;2023-09-19T00:51:28;2.88;;;1.10;;
21769;SDS011;11046;49.558;8.674;2023-09-19T00:54:29;9.80;;;1.40;;
21769;SDS011;11046;49.558;8.674;2023-09-19T00:57:30;3.53;;;1.10;;
21769;SDS011;11046;49.558;8.674;2023-09-19T01:00:33;2.63;;;1.30;;
21769;SDS011;11046;49.558;8.674;2023-09-19T01:03:34;5.32;;;1.70;;
21769;SDS011;11046;49.558;8.674;2023-09-19T01:06:35;3.35;;;1.40;;
21769;SDS011;11046;49.558;8.674;2023-09-19T01:09:37;2.40;;;1.20;;
21769;SDS011;11046;49.558;8.674;2023-09-19T01:22:37;2.97;;;1.40;;
21769;SDS011;11046;49.558;8.674;2023-09-19T01:29:27;4.80;;;1.48;;
21769;SDS011;11046;49.558;8.674;2023-09-19T01:32:44;2.55;;;1.20;;
21769;SDS011;11046;49.558;8.674;2023-09-19T01:35:46;4.10;;;1.85;;
21769;SDS011;11046;49.558;8.674;2023-09-19T01:38:47;2.83;;;1.42;;
21769;SDS011;11046;49.558;8.674;2023-09-19T01:41:54;5.50;;;1.60;;
21769;SDS011;11046;49.558;8.674;2023-09-19T01:45:12;2.65;;;1.60;;
21769;SDS011;11046;49.558;8.674;2023-09-19T01:48:23;2.40;;;1.30;;
21769;SDS011;11046;49.558;8.674;2023-09-19T01:51:43;3.97;;;1.70;;
21769;SDS011;11046;49.558;8.674;2023-09-19T01:54:52;2.75;;;1.52;;
21769;SDS011;11046;49.558;8.674;2023-09-19T01:58:06;4.82;;;1.65;;
21769;SDS011;11046;49.558;8.674;2023-09-19T02:01:16;3.92;;;2.15;;
21769;SDS011;11046;49.558;8.674;2023-09-19T02:04:20;3.70;;;1.80;;
21769;SDS011;11046;49.558;8.674;2023-09-19T02:07:20;6.00;;;1.83;;
21769;SDS011;11046;49.558;8.674;2023-09-19T02:10:24;3.30;;;1.60;;
21769;SDS011;11046;49.558;8.674;2023-09-19T02:13:24;6.15;;;1.63;;
21769;SDS011;11046;49.558;8.674;2023-09-19T02:16:28;3.50;;;1.58;;
21769;SDS011;11046;49.558;8.674;2023-09-19T02:19:28;4.78;;;1.80;;
21769;SDS011;11046;49.558;8.674;2023-09-19T02:22:30;2.75;;;1.77;;
21769;SDS011;11046;49.558;8.674;2023-09-19T02:25:30;3.95;;;1.83;;
21769;SDS011;11046;49.558;8.674;2023-09-19T02:28:32;1.88;;;1.35;;
21769;SDS011;11046;49.558;8.674;2023-09-19T02:31:32;2.58;;;1.52;;
21769;SDS011;11046;49.558;8.674;2023-09-19T02:34:33;7.28;;;1.98;;
21769;SDS011;11046;49.558;8.674;2023-09-19T02:37:36;6.63;;;2.00;;
21769;SDS011;11046;49.558;8.674;2023-09-19T02:40:38;4.13;;;1.83;;
21769;SDS011;11046;49.558;8.674;2023-09-19T02:43:41;4.10;;;1.80;;
21769;SDS011;11046;49.558;8.674;2023-09-19T02:46:43;5.03;;;1.92;;
21769;SDS011;11046;49.558;8.674;2023-09-19T02:49:43;3.78;;;1.80;;
21769;SDS011;11046;49.558;8.674;2023-09-19T02:52:45;3.78;;;1.65;;
21769;SDS011;11046;49.558;8.674;2023-09-19T02:55:48;2.88;;;1.42;;
21769;SDS011;11046;49.558;8.674;2023-09-19T02:58:49;5.38;;;1.95;;
21769;SDS011;11046;49.558;8.674;2023-09-19T03:01:52;8.05;;;1.92;;
21769;SDS011;11046;49.558;8.674;2023-09-19T03:04:54;6.38;;;1.73;;
21769;SDS011;11046;49.558;8.674;2023-09-19T03:07:56;6.00;;;1.50;;
21769;SDS011;11046;49.558;8.674;2023-09-19T03:11:00;3.67;;;1.65;;
21769;SDS011;11046;49.558;8.674;2023-09-19T03:14:02;2.85;;;1.58;;
21769;SDS011;11046;49.558;8.674;2023-09-19T03:17:03;3.10;;;1.55;;
21769;SDS011;11046;49.558;8.674;2023-09-19T03:20:08;9.23;;;1.70;;
21769;SDS011;11046;49.558;8.674;2023-09-19T03:23:11;3.78;;;1.73;;
21769;SDS011;11046;49.558;8.674;2023-09-19T03:26:13;3.55;;;1.85;;
21769;SDS011;11046;49.558;8.674;2023-09-19T03:29:16;4.57;;;1.50;;
21769;SDS011;11046;49.558;8.674;2023-09-19T03:32:18;4.20;;;1.70;;
21769;SDS011;11046;49.558;8.674;2023-09-19T03:35:20;6.05;;;1.95;;
21769;SDS011;11046;49.558;8.674;2023-09-19T03:38:21;2.75;;;1.85;;
21769;SDS011;11046;49.558;8.674;2023-09-19T03:41:22;5.10;;;1.70;;
21769;SDS011;11046;49.558;8.674;2023-09-19T03:44:23;3.05;;;2.08;;
21769;SDS011;11046;49.558;8.674;2023-09-19T03:47:23;4.13;;;2.20;;
21769;SDS011;11046;49.558;8.674;2023-09-19T03:50:24;5.60;;;2.00;;
21769;SDS011;11046;49.558;8.674;2023-09-19T03:53:26;5.18;;;2.03;;
21769;SDS011;11046;49.558;8.674;2023-09-19T03:56:26;5.78;;;2.40;;
21769;SDS011;11046;49.558;8.674;2023-09-19T03:59:28;4.18;;;2.03;;
21769;SDS011;11046;49.558;8.674;2023-09-19T04:02:29;4.20;;;2.17;;
21769;SDS011;11046;49.558;8.674;2023-09-19T04:05:33;4.78;;;2.25;;
21769;SDS011;11046;49.558;8.674;2023-09-19T04:08:34;4.50;;;2.15;;
21769;SDS011;11046;49.558;8.674;2023-09-19T04:11:35;4.22;;;2.28;;
21769;SDS011;11046;49.558;8.674;2023-09-19T04:14:36;6.70;;;2.15;;
21769;SDS011;11046;49.558;8.674;2023-09-19T04:17:37;5.63;;;2.15;;
21769;SDS011;11046;49.558;8.674;2023-09-19T04:20:37;5.78;;;2.53;;
21769;SDS011;11046;49.558;8.674;2023-09-19T04:23:38;5.03;;;2.47;;
21769;SDS011;11046;49.558;8.674;2023-09-19T04:26:39;4.93;;;2.55;;
21769;SDS011;11046;49.558;8.674;2023-09-19T04:29:40;9.07;;;2.70;;
21769;SDS011;11046;49.558;8.674;2023-09-19T04:32:41;5.40;;;2.25;;
21769;SDS011;11046;49.558;8.674;2023-09-19T04:35:42;4.90;;;2.58;;
21769;SDS011;11046;49.558;8.674;2023-09-19T04:38:42;4.20;;;2.65;;
21769;SDS011;11046;49.558;8.674;2023-09-19T04:41:43;4.15;;;2.70;;
21769;SDS011;11046;49.558;8.674;2023-09-19T04:44:46;5.15;;;2.75;;
21769;SDS011;11046;49.558;8.674;2023-09-19T04:47:49;6.80;;;3.15;;
21769;SDS011;11046;49.558;8.674;2023-09-19T04:50:50;3.95;;;2.60;;
21769;SDS011;11046;49.558;8.674;2023-09-19T04:53:51;5.88;;;2.55;;
21769;SDS011;11046;49.558;8.674;2023-09-19T04:56:51;3.42;;;2.60;;
21769;SDS011;11046;49.558;8.674;2023-09-19T04:59:52;6.75;;;2.38;;
21769;SDS011;11046;49.558;8.674;2023-09-19T05:02:56;4.07;;;2.50;;
21769;SDS011;11046;49.558;8.674;2023-09-19T05:05:57;6.28;;;2.70;;
21769;SDS011;11046;49.558;8.674;2023-09-19T05:08:58;5.78;;;2.50;;
21769;SDS011;11046;49.558;8.674;2023-09-19T05:12:00;6.40;;;2.60;;
21769;SDS011;11046;49.558;8.674;2023-09-19T05:15:01;5.22;;;3.00;;
21769;SDS011;11046;49.558;8.674;2023-09-19T05:18:03;5.40;;;3.05;;
21769;SDS011;11046;49.558;8.674;2023-09-19T05:21:03;4.65;;;2.53;;
21769;SDS011;11046;49.558;8.674;2023-09-19T05:24:05;4.65;;;3.00;;
21769;SDS011;11046;49.558;8.674;2023-09-19T05:27:06;8.73;;;3.33;;
21769;SDS011;11046;49.558;8.674;2023-09-19T05:30:07;7.05;;;3.20;;
21769;SDS011;11046;49.558;8.674;2023-09-19T05:33:08;6.35;;;3.00;;
21769;SDS011;11046;49.558;8.674;2023-09-19T05:36:09;7.30;;;3.17;;
21769;SDS011;11046;49.558;8.674;2023-09-19T05:39:11;9.02;;;3.65;;
21769;SDS011;11046;49.558;8.674;2023-09-19T05:42:12;7.43;;;3.22;;
21769;SDS011;11046;49.558;8.674;2023-09-19T05:45:14;11.02;;;4.05;;
21769;SDS011;11046;49.558;8.674;2023-09-19T05:48:18;5.30;;;3.15;;
21769;SDS011;11046;49.558;8.674;2023-09-19T05:51:21;7.45;;;2.95;;
21769;SDS011;11046;49.558;8.674;2023-09-19T05:54:22;7.80;;;3.30;;
21769;SDS011;11046;49.558;8.674;2023-09-19T05:57:23;9.43;;;3.22;;
21769;SDS011;11046;49.558;8.674;2023-09-19T06:00:25;8.30;;;3.05;;
21769;SDS011;11046;49.558;8.674;2023-09-19T06:03:27;10.43;;;3.20;;
21769;SDS011;11046;49.558;8.674;2023-09-19T06:06:29;10.00;;;2.75;;
21769;SDS011;11046;49.558;8.674;2023-09-19T06:09:30;6.63;;;3.13;;
21769;SDS011;11046;49.558;8.674;2023-09-19T06:12:32;9.10;;;3.10;;
21769;SDS011;11046;49.558;8.674;2023-09-19T06:15:37;5.07;;;3.22;;
21769;SDS011;11046;49.558;8.674;2023-09-19T06:18:39;5.50;;;2.63;;
21769;SDS011;11046;49.558;8.674;2023-09-19T06:21:39;7.50;;;2.92;;
21769;SDS011;11046;49.558;8.674;2023-09-19T06:24:40;8.98;;;3.28;;
21769;SDS011;11046;49.558;8.674;2023-09-19T06:27:40;6.95;;;3.35;;
21769;SDS011;11046;49.558;8.674;2023-09-19T06:30:42;7.68;;;2.80;;
21769;SDS011;11046;49.558;8.674;2023-09-19T06:33:44;6.90;;;2.90;;
21769;SDS011;11046;49.558;8.674;2023-09-19T06:36:44;7.63;;;3.00;;
21769;SDS011;11046;49.558;8.674;2023-09-19T06:39:45;9.27;;;2.60;;
21769;SDS011;11046;49.558;8.674;2023-09-19T06:42:47;5.55;;;2.83;;
21769;SDS011;11046;49.558;8.674;2023-09-19T06:45:51;7.53;;;2.72;;
21769;SDS011;11046;49.558;8.674;2023-09-19T06:48:51;12.15;;;3.28;;
21769;SDS011;11046;49.558;8.674;2023-09-19T06:51:54;6.32;;;2.60;;
21769;SDS011;11046;49.558;8.674;2023-09-19T06:54:55;6.75;;;2.40;;
21769;SDS011;11046;49.558;8.674;2023-09-19T06:57:55;10.70;;;2.45;;
21769;SDS011;11046;49.558;8.674;2023-09-19T07:00:56;12.18;;;2.60;;
21769;SDS011;11046;49.558;8.674;2023-09-19T07:03:57;10.95;;;2.83;;
21769;SDS011;11046;49.558;8.674;2023-09-19T07:06:57;5.68;;;2.83;;
21769;SDS011;11046;49.558;8.674;2023-09-19T07:09:58;12.15;;;2.58;;
21769;SDS011;11046;49.558;8.674;2023-09-19T07:12:59;9.57;;;2.80;;
21769;SDS011;11046;49.558;8.674;2023-09-19T07:16:01;11.70;;;2.88;;
21769;SDS011;11046;49.558;8.674;2023-09-19T07:19:02;9.38;;;2.95;;
21769;SDS011;11046;49.558;8.674;2023-09-19T07:22:03;6.80;;;2.50;;
21769;SDS011;11046;49.558;8.674;2023-09-19T07:25:04;7.78;;;2.58;;
21769;SDS011;11046;49.558;8.674;2023-09-19T07:28:05;8.80;;;2.75;;
21769;SDS011;11046;49.558;8.674;2023-09-19T07:31:06;7.13;;;2.80;;
21769;SDS011;11046;49.558;8.674;2023-09-19T07:34:10;7.68;;;2.63;;
21769;SDS011;11046;49.558;8.674;2023-09-19T07:37:10;8.98;;;2.50;;
21769;SDS011;11046;49.558;8.674;2023-09-19T07:40:13;6.32;;;2.80;;
21769;SDS011;11046;49.558;8.674;2023-09-19T07:43:13;9.23;;;2.83;;
21769;SDS011;11046;49.558;8.674;2023-09-19T07:46:14;6.65;;;2.78;;
21769;SDS011;11046;49.558;8.674;2023-09-19T07:49:14;3.50;;;2.00;;
21769;SDS011;11046;49.558;8.674;2023-09-19T07:52:15;5.15;;;3.17;;
21769;SDS011;11046;49.558;8.674;2023-09-19T07:55:16;8.13;;;2.75;;
21769;SDS011;11046;49.558;8.674;2023-09-19T07:58:17;5.70;;;2.40;;
21769;SDS011;11046;49.558;8.674;2023-09-19T08:01:18;5.82;;;2.38;;
21769;SDS011;11046;49.558;8.674;2023-09-19T08:04:18;4.90;;;2.50;;
21769;SDS011;11046;49.558;8.674;2023-09-19T08:07:19;3.83;;;2.58;;
21769;SDS011;11046;49.558;8.674;2023-09-19T08:10:20;4.10;;;2.58;;
21769;SDS011;11046;49.558;8.674;2023-09-19T08:13:21;5.75;;;1.95;;
21769;SDS011;11046;49.558;8.674;2023-09-19T08:16:22;4.53;;;2.13;;
21769;SDS011;11046;49.558;8.674;2023-09-19T08:19:24;4.68;;;2.33;;
21769;SDS011;11046;49.558;8.674;2023-09-19T08:22:28;5.50;;;2.47;;
21769;SDS011;11046;49.558;8.674;2023-09-19T08:25:29;7.25;;;2.60;;
21769;SDS011;11046;49.558;8.674;2023-09-19T08:28:29;5.97;;;2.33;;
21769;SDS011;11046;49.558;8.674;2023-09-19T08:31:30;3.70;;;2.20;;
21769;SDS011;11046;49.558;8.674;2023-09-19T08:34:31;5.40;;;2.60;;
21769;SDS011;11046;49.558;8.674;2023-09-19T08:37:34;5.20;;;2.58;;
21769;SDS011;11046;49.558;8.674;2023-09-19T08:40:38;7.47;;;2.67;;
21769;SDS011;11046;49.558;8.674;2023-09-19T08:43:43;4.72;;;2.55;;
21769;SDS011;11046;49.558;8.674;2023-09-19T08:46:44;7.28;;;2.33;;
21769;SDS011;11046;49.558;8.674;2023-09-19T08:53:05;5.82;;;2.10;;
21769;SDS011;11046;49.558;8.674;2023-09-19T08:56:11;5.93;;;2.10;;
21769;SDS011;11046;49.558;8.674;2023-09-19T08:59:13;7.68;;;2.55;;
21769;SDS011;11046;49.558;8.674;2023-09-19T09:02:15;4.28;;;2.78;;
21769;SDS011;11046;49.558;8.674;2023-09-19T09:05:19;14.05;;;2.58;;
21769;SDS011;11046;49.558;8.674;2023-09-19T09:08:22;7.82;;;2.80;;
21769;SDS011;11046;49.558;8.674;2023-09-19T09:11:24;5.72;;;2.63;;
21769;SDS011;11046;49.558;8.674;2023-09-19T09:14:26;4.47;;;2.60;;
21769;SDS011;11046;49.558;8.674;2023-09-19T09:17:27;3.88;;;2.67;;
21769;SDS011;11046;49.558;8.674;2023-09-19T09:20:28;4.20;;;2.80;;
21769;SDS011;11046;49.558;8.674;2023-09-19T09:23:28;5.05;;;2.60;;
21769;SDS011;11046;49.558;8.674;2023-09-19T09:26:40;5.57;;;2.85;;
21769;SDS011;11046;49.558;8.674;2023-09-19T09:29:43;4.63;;;2.83;;
21769;SDS011;11046;49.558;8.674;2023-09-19T09:32:58;4.03;;;2.40;;
21769;SDS011;11046;49.558;8.674;2023-09-19T09:36:11;5.40;;;2.53;;
21769;SDS011;11046;49.558;8.674;2023-09-19T09:39:13;5.90;;;2.75;;
21769;SDS011;11046;49.558;8.674;2023-09-19T09:42:31;6.97;;;2.60;;
21769;SDS011;11046;49.558;8.674;2023-09-19T09:45:33;4.03;;;2.05;;
21769;SDS011;11046;49.558;8.674;2023-09-19T09:48:34;6.10;;;2.58;;
21769;SDS011;11046;49.558;8.674;2023-09-19T09:51:43;5.85;;;2.33;;
21769;SDS011;11046;49.558;8.674;2023-09-19T09:55:01;6.13;;;2.50;;
21769;SDS011;11046;49.558;8.674;2023-09-19T09:58:17;7.68;;;2.67;;
21769;SDS011;11046;49.558;8.674;2023-09-19T10:01:18;6.00;;;2.40;;
21769;SDS011;11046;49.558;8.674;2023-09-19T10:04:27;7.78;;;2.15;;
21769;SDS011;11046;49.558;8.674;2023-09-19T10:07:36;3.83;;;2.00;;
21769;SDS011;11046;49.558;8.674;2023-09-19T10:10:40;5.13;;;1.73;;
21769;SDS011;11046;49.558;8.674;2023-09-19T10:13:40;4.43;;;2.20;;
21769;SDS011;11046;49.558;8.674;2023-09-19T10:16:47;7.03;;;2.15;;
21769;SDS011;11046;49.558;8.674;2023-09-19T10:19:54;4.05;;;2.53;;
21769;SDS011;11046;49.558;8.674;2023-09-19T10:22:59;6.47;;;2.25;;
21769;SDS011;11046;49.558;8.674;2023-09-19T10:26:01;5.82;;;2.55;;
21769;SDS011;11046;49.558;8.674;2023-09-19T10:29:01;2.95;;;1.70;;
21769;SDS011;11046;49.558;8.674;2023-09-19T10:32:07;3.95;;;1.90;;
21769;SDS011;11046;49.558;8.674;2023-09-19T10:35:09;4.68;;;1.90;;
21769;SDS011;11046;49.558;8.674;2023-09-19T10:38:13;4.40;;;1.67;;
21769;SDS011;11046;49.558;8.674;2023-09-19T10:41:17;7.30;;;1.80;;
21769;SDS011;11046;49.558;8.674;2023-09-19T10:44:24;3.25;;;1.80;;
21769;SDS011;11046;49.558;8.674;2023-09-19T10:47:26;3.65;;;2.00;;
21769;SDS011;11046;49.558;8.674;2023-09-19T10:50:27;4.05;;;2.00;;
21769;SDS011;11046;49.558;8.674;2023-09-19T10:53:45;3.95;;;1.60;;
21769;SDS011;11046;49.558;8.674;2023-09-19T10:56:52;5.20;;;1.45;;
21769;SDS011;11046;49.558;8.674;2023-09-19T11:00:00;3.17;;;1.30;;
21769;SDS011;11046;49.558;8.674;2023-09-19T11:03:24;7.10;;;1.73;;
21769;SDS011;11046;49.558;8.674;2023-09-19T11:06:30;4.07;;;1.75;;
21769;SDS011;11046;49.558;8.674;2023-09-19T11:09:53;4.80;;;1.80;;
21769;SDS011;11046;49.558;8.674;2023-09-19T11:12:54;5.25;;;1.80;;
21769;SDS011;11046;49.558;8.674;2023-09-19T11:18:57;3.13;;;1.30;;
21769;SDS011;11046;49.558;8.674;2023-09-19T11:22:07;3.97;;;1.23;;
21769;SDS011;11046;49.558;8.674;2023-09-19T11:28:39;4.00;;;1.50;;
21769;SDS011;11046;49.558;8.674;2023-09-19T11:31:43;6.38;;;1.38;;
21769;SDS011;11046;49.558;8.674;2023-09-19T11:34:48;3.90;;;1.25;;
21769;SDS011;11046;49.558;8.674;2023-09-19T11:41:11;4.75;;;1.40;;
21769;SDS011;11046;49.558;8.674;2023-09-19T11:44:32;5.97;;;1.40;;
21769;SDS011;11046;49.558;8.674;2023-09-19T11:47:34;4.07;;;1.27;;
21769;SDS011;11046;49.558;8.674;2023-09-19T11:50:35;3.92;;;1.20;;
21769;SDS011;11046;49.558;8.674;2023-09-19T11:53:37;3.83;;;1.20;;
21769;SDS011;11046;49.558;8.674;2023-09-19T11:56:39;3.33;;;1.17;;
21769;SDS011;11046;49.558;8.674;2023-09-19T11:59:41;1.77;;;1.20;;
21769;SDS011;11046;49.558;8.674;2023-09-19T12:02:42;3.42;;;1.45;;
21769;SDS011;11046;49.558;8.674;2023-09-19T12:05:47;3.42;;;1.38;;
21769;SDS011;11046;49.558;8.674;2023-09-19T12:08:47;5.90;;;1.70;;
21769;SDS011;11046;49.558;8.674;2023-09-19T12:11:50;3.17;;;1.35;;
21769;SDS011;11046;49.558;8.674;2023-09-19T12:14:51;3.33;;;1.50;;
21769;SDS011;11046;49.558;8.674;2023-09-19T12:17:52;5.40;;;1.75;;
21769;SDS011;11046;49.558;8.674;2023-09-19T12:20:54;4.72;;;1.00;;
21769;SDS011;11046;49.558;8.674;2023-09-19T12:24:05;4.93;;;1.80;;
21769;SDS011;11046;49.558;8.674;2023-09-19T12:27:19;3.72;;;1.40;;
21769;SDS011;11046;49.558;8.674;2023-09-19T12:30:20;3.75;;;1.50;;
21769;SDS011;11046;49.558;8.674;2023-09-19T12:33:28;3.50;;;1.40;;
21769;SDS011;11046;49.558;8.674;2023-09-19T12:36:28;3.30;;;1.40;;
21769;SDS011;11046;49.558;8.674;2023-09-19T12:39:30;1.65;;;1.20;;
21769;SDS011;11046;49.558;8.674;2023-09-19T12:42:31;6.80;;;1.20;;
21769;SDS011;11046;49.558;8.674;2023-09-19T12:45:35;4.22;;;1.52;;
21769;SDS011;11046;49.558;8.674;2023-09-19T12:48:39;2.67;;;1.30;;
21769;SDS011;11046;49.558;8.674;2023-09-19T12:51:45;4.78;;;1.42;;
21769;SDS011;11046;49.558;8.674;2023-09-19T12:54:46;2.85;;;1.10;;
21769;SDS011;11046;49.558;8.674;2023-09-19T12:57:58;3.28;;;1.15;;
21769;SDS011;11046;49.558;8.674;2023-09-19T13:01:15;4.90;;;1.45;;
21769;SDS011;11046;49.558;8.674;2023-09-19T13:04:17;4.07;;;1.55;;
21769;SDS011;11046;49.558;8.674;2023-09-19T13:07:42;4.45;;;1.40;;
21769;SDS011;11046;49.558;8.674;2023-09-19T13:14:22;2.85;;;1.30;;
21769;SDS011;11046;49.558;8.674;2023-09-19T13:17:24;2.80;;;1.05;;
21769;SDS011;11046;49.558;8.674;2023-09-19T13:20:26;3.28;;;1.65;;
21769;SDS011;11046;49.558;8.674;2023-09-19T13:23:32;4.97;;;1.63;;
21769;SDS011;11046;49.558;8.674;2023-09-19T13:26:32;3.45;;;1.58;;
21769;SDS011;11046;49.558;8.674;2023-09-19T13:29:33;3.08;;;1.40;;
21769;SDS011;11046;49.558;8.674;2023-09-19T13:32:34;2.67;;;1.20;;
21769;SDS011;11046;49.558;8.674;2023-09-19T13:35:34;6.90;;;1.60;;
21769;SDS011;11046;49.558;8.674;2023-09-19T13:38:36;2.42;;;1.13;;
21769;SDS011;11046;49.558;8.674;2023-09-19T13:41:37;4.40;;;1.25;;
21769;SDS011;11046;49.558;8.674;2023-09-19T13:44:38;3.67;;;1.30;;
21769;SDS011;11046;49.558;8.674;2023-09-19T13:47:38;2.80;;;1.33;;
21769;SDS011;11046;49.558;8.674;2023-09-19T13:50:40;3.83;;;1.10;;
21769;SDS011;11046;49.558;8.674;2023-09-19T13:53:42;4.70;;;1.48;;
21769;SDS011;11046;49.558;8.674;2023-09-19T13:56:43;2.70;;;1.15;;
21769;SDS011;11046;49.558;8.674;2023-09-19T13:59:43;3.13;;;1.15;;
21769;SDS011;11046;49.558;8.674;2023-09-19T14:02:44;5.55;;;1.63;;
21769;SDS011;11046;49.558;8.674;2023-09-19T14:05:46;3.28;;;1.50;;
21769;SDS011;11046;49.558;8.674;2023-09-19T14:08:47;5.47;;;1.40;;
21769;SDS011;11046;49.558;8.674;2023-09-19T14:11:50;3.42;;;1.20;;
21769;SDS011;11046;49.558;8.674;2023-09-19T14:14:52;3.60;;;1.23;;
21769;SDS011;11046;49.558;8.674;2023-09-19T14:17:56;3.03;;;1.30;;
21769;SDS011;11046;49.558;8.674;2023-09-19T14:20:57;5.32;;;1.20;;
21769;SDS011;11046;49.558;8.674;2023-09-19T14:23:58;3.65;;;1.20;;
21769;SDS011;11046;49.558;8.674;2023-09-19T14:26:58;2.22;;;1.20;;
21769;SDS011;11046;49.558;8.674;2023-09-19T14:29:59;3.40;;;1.20;;
21769;SDS011;11046;49.558;8.674;2023-09-19T14:33:00;3.78;;;1.30;;
21769;SDS011;11046;49.558;8.674;2023-09-19T14:36:07;6.68;;;1.25;;
21769;SDS011;11046;49.558;8.674;2023-09-19T14:39:10;1.73;;;0.98;;
21769;SDS011;11046;49.558;8.674;2023-09-19T14:42:10;3.15;;;1.50;;
21769;SDS011;11046;49.558;8.674;2023-09-19T14:45:11;4.90;;;1.75;;
21769;SDS011;11046;49.558;8.674;2023-09-19T14:48:14;2.38;;;1.10;;
21769;SDS011;11046;49.558;8.674;2023-09-19T14:51:15;2.55;;;1.13;;
21769;SDS011;11046;49.558;8.674;2023-09-19T14:54:15;4.05;;;1.30;;
21769;SDS011;11046;49.558;8.674;2023-09-19T14:57:16;4.72;;;1.20;;
21769;SDS011;11046;49.558;8.674;2023-09-19T15:00:17;3.75;;;1.52;;
21769;SDS011;11046;49.558;8.674;2023-09-19T15:03:20;2.08;;;1.25;;
21769;SDS011;11046;49.558;8.674;2023-09-19T15:06:20;3.17;;;1.25;;
21769;SDS011;11046;49.558;8.674;2023-09-19T15:09:21;3.20;;;1.30;;
21769;SDS011;11046;49.558;8.674;2023-09-19T15:12:26;2.83;;;1.05;;
21769;SDS011;11046;49.558;8.674;2023-09-19T15:15:27;2.47;;;1.15;;
21769;SDS011;11046;49.558;8.674;2023-09-19T15:18:27;4.03;;;1.30;;
21769;SDS011;11046;49.558;8.674;2023-09-19T15:21:30;3.08;;;1.20;;
21769;SDS011;11046;49.558;8.674;2023-09-19T15:24:31;6.10;;;3.38;;
21769;SDS011;11046;49.558;8.674;2023-09-19T15:27:32;2.47;;;1.25;;
21769;SDS011;11046;49.558;8.674;2023-09-19T15:30:36;5.90;;;2.75;;
21769;SDS011;11046;49.558;8.674;2023-09-19T15:33:38;3.17;;;1.45;;
21769;SDS011;11046;49.558;8.674;2023-09-19T15:36:40;1.70;;;1.02;;
21769;SDS011;11046;49.558;8.674;2023-09-19T15:39:42;2.70;;;1.20;;
21769;SDS011;11046;49.558;8.674;2023-09-19T15:42:44;4.10;;;1.58;;
21769;SDS011;11046;49.558;8.674;2023-09-19T15:45:45;1.88;;;1.20;;
21769;SDS011;11046;49.558;8.674;2023-09-19T15:48:46;3.47;;;1.23;;
21769;SDS011;11046;49.558;8.674;2023-09-19T15:51:47;3.05;;;1.10;;
21769;SDS011;11046;49.558;8.674;2023-09-19T15:54:47;4.22;;;1.67;;
21769;SDS011;11046;49.558;8.674;2023-09-19T15:57:48;2.80;;;1.40;;
21769;SDS011;11046;49.558;8.674;2023-09-19T16:00:48;2.03;;;1.17;;
21769;SDS011;11046;49.558;8.674;2023-09-19T16:03:50;2.20;;;1.30;;
21769;SDS011;11046;49.558;8.674;2023-09-19T16:06:53;5.45;;;1.20;;
21769;SDS011;11046;49.558;8.674;2023-09-19T16:09:54;4.75;;;1.40;;
21769;SDS011;11046;49.558;8.674;2023-09-19T16:12:55;1.88;;;1.10;;
21769;SDS011;11046;49.558;8.674;2023-09-19T16:15:55;9.82;;;1.55;;
21769;SDS011;11046;49.558;8.674;2023-09-19T16:18:57;2.38;;;1.25;;
21769;SDS011;11046;49.558;8.674;2023-09-19T16:22:05;5.60;;;1.33;;
21769;SDS011;11046;49.558;8.674;2023-09-19T16:25:05;4.93;;;1.50;;
21769;SDS011;11046;49.558;8.674;2023-09-19T16:28:06;2.17;;;1.50;;
21769;SDS011;11046;49.558;8.674;2023-09-19T16:31:07;2.63;;;1.25;;
21769;SDS011;11046;49.558;8.674;2023-09-19T16:34:08;3.17;;;1.40;;
21769;SDS011;11046;49.558;8.674;2023-09-19T16:37:09;2.05;;;1.13;;
21769;SDS011;11046;49.558;8.674;2023-09-19T16:40:10;2.63;;;1.30;;
21769;SDS011;11046;49.558;8.674;2023-09-19T16:43:11;3.60;;;1.73;;
21769;SDS011;11046;49.558;8.674;2023-09-19T16:46:12;1.92;;;1.00;;
21769;SDS011;11046;49.558;8.674;2023-09-19T16:49:16;1.58;;;1.20;;
21769;SDS011;11046;49.558;8.674;2023-09-19T16:52:16;2.22;;;1.45;;
21769;SDS011;11046;49.558;8.674;2023-09-19T16:55:17;4.20;;;1.52;;
21769;SDS011;11046;49.558;8.674;2023-09-19T16:58:20;6.43;;;1.38;;
21769;SDS011;11046;49.558;8.674;2023-09-19T17:01:22;3.08;;;1.02;;
21769;SDS011;11046;49.558;8.674;2023-09-19T17:04:24;3.00;;;1.23;;
21769;SDS011;11046;49.558;8.674;2023-09-19T17:07:24;3.47;;;1.40;;
21769;SDS011;11046;49.558;8.674;2023-09-19T17:10:25;1.95;;;1.10;;
21769;SDS011;11046;49.558;8.674;2023-09-19T17:13:29;2.92;;;1.20;;
21769;SDS011;11046;49.558;8.674;2023-09-19T17:16:30;2.03;;;1.20;;
21769;SDS011;11046;49.558;8.674;2023-09-19T17:19:31;1.70;;;1.13;;
21769;SDS011;11046;49.558;8.674;2023-09-19T17:22:32;3.35;;;1.30;;
21769;SDS011;11046;49.558;8.674;2023-09-19T17:25:33;2.47;;;1.30;;
21769;SDS011;11046;49.558;8.674;2023-09-19T17:28:34;3.92;;;1.30;;
21769;SDS011;11046;49.558;8.674;2023-09-19T17:31:35;3.35;;;1.40;;
21769;SDS011;11046;49.558;8.674;2023-09-19T17:34:38;3.70;;;1.52;;
21769;SDS011;11046;49.558;8.674;2023-09-19T17:37:39;2.65;;;1.30;;
21769;SDS011;11046;49.558;8.674;2023-09-19T17:40:40;2.80;;;1.35;;
21769;SDS011;11046;49.558;8.674;2023-09-19T17:43:41;6.78;;;1.40;;
21769;SDS011;11046;49.558;8.674;2023-09-19T17:46:43;3.20;;;1.42;;
21769;SDS011;11046;49.558;8.674;2023-09-19T17:49:43;2.70;;;1.40;;
21769;SDS011;11046;49.558;8.674;2023-09-19T17:52:44;3.45;;;1.40;;
21769;SDS011;11046;49.558;8.674;2023-09-19T17:55:45;15.00;;;2.38;;
21769;SDS011;11046;49.558;8.674;2023-09-19T17:58:46;2.17;;;1.30;;
21769;SDS011;11046;49.558;8.674;2023-09-19T18:01:54;2.47;;;1.40;;
21769;SDS011;11046;49.558;8.674;2023-09-19T18:04:55;2.72;;;1.33;;
21769;SDS011;11046;49.558;8.674;2023-09-19T18:07:56;3.10;;;1.55;;
21769;SDS011;11046;49.558;8.674;2023-09-19T18:10:57;3.63;;;1.48;;
21769;SDS011;11046;49.558;8.674;2023-09-19T18:13:58;3.72;;;1.90;;
21769;SDS011;11046;49.558;8.674;2023-09-19T18:16:59;1.75;;;1.30;;
21769;SDS011;11046;49.558;8.674;2023-09-19T18:20:00;3.53;;;1.33;;
21769;SDS011;11046;49.558;8.674;2023-09-19T18:23:00;2.80;;;1.33;;
21769;SDS011;11046;49.558;8.674;2023-09-19T18:26:01;4.13;;;1.40;;
21769;SDS011;11046;49.558;8.674;2023-09-19T18:29:02;2.60;;;1.50;;
21769;SDS011;11046;49.558;8.674;2023-09-19T18:32:03;2.95;;;1.60;;
21769;SDS011;11046;49.558;8.674;2023-09-19T18:35:04;5.05;;;1.90;;
21769;SDS011;11046;49.558;8.674;2023-09-19T18:38:07;8.20;;;1.60;;
21769;SDS011;11046;49.558;8.674;2023-09-19T18:41:09;3.03;;;1.42;;
21769;SDS011;11046;49.558;8.674;2023-09-19T18:44:10;2.70;;;1.60;;
21769;SDS011;11046;49.558;8.674;2023-09-19T18:47:10;3.95;;;1.70;;
21769;SDS011;11046;49.558;8.674;2023-09-19T18:50:12;3.38;;;1.65;;
21769;SDS011;11046;49.558;8.674;2023-09-19T18:53:13;5.32;;;2.00;;